sensor_id;sensor_type;location;lat;lon;timestamp;P1;durP1;ratioP1;P2;durP2;ratioP2
29824;SDS011;16713;52.916;12.834;2024-01-15T00:01:58;18.35;;;10.88;;
29824;SDS011;16713;52.916;12.834;2024-01-15T00:04:24;18.73;;;9.75;;
29824;SDS011;16713;52.916;12.834;2024-01-15T00:06:51;18.63;;;10.43;;
29824;SDS011;16713;52.916;12.834;2024-01-15T00:09:18;16.83;;;9.95;;
29824;SDS011;16713;52.916;12.834;2024-01-15T00:11:44;17.83;;;9.70;;
29824;SDS011;16713;52.916;12.834;2024-01-15T00:14:11;16.55;;;10.50;;
29824;SDS011;16713;52.916;12.834;2024-01-15T00:16:39;17.15;;;9.93;;
29824;SDS011;16713;52.916;12.834;2024-01-15T00:19:06;14.93;;;8.73;;
29824;SDS011;16713;52.916;12.834;2024-01-15T00:21:33;14.68;;;9.60;;
29824;SDS011;16713;52.916;12.834;2024-01-15T00:24:00;18.17;;;10.07;;
29824;SDS011;16713;52.916;12.834;2024-01-15T00:26:26;16.33;;;9.30;;
29824;SDS011;16713;52.916;12.834;2024-01-15T00:28:52;15.52;;;8.23;;
29824;SDS011;16713;52.916;12.834;2024-01-15T00:31:19;13.98;;;8.13;;
29824;SDS011;16713;52.916;12.834;2024-01-15T00:33:45;14.30;;;8.07;;
29824;SDS011;16713;52.916;12.834;2024-01-15T00:36:12;13.40;;;8.23;;
29824;SDS011;16713;52.916;12.834;2024-01-15T00:38:39;17.20;;;7.38;;
29824;SDS011;16713;52.916;12.834;2024-01-15T00:41:06;14.55;;;7.97;;
29824;SDS011;16713;52.916;12.834;2024-01-15T00:43:32;12.80;;;7.43;;
29824;SDS011;16713;52.916;12.834;2024-01-15T00:46:01;13.52;;;7.57;;
29824;SDS011;16713;52.916;12.834;2024-01-15T00:48:29;12.30;;;7.30;;
29824;SDS011;16713;52.916;12.834;2024-01-15T00:50:56;12.32;;;7.03;;
29824;SDS011;16713;52.916;12.834;2024-01-15T00:53:22;15.65;;;7.28;;
29824;SDS011;16713;52.916;12.834;2024-01-15T00:55:49;12.25;;;6.45;;
29824;SDS011;16713;52.916;12.834;2024-01-15T00:58:15;10.95;;;6.28;;
29824;SDS011;16713;52.916;12.834;2024-01-15T01:00:42;11.38;;;6.22;;
29824;SDS011;16713;52.916;12.834;2024-01-15T01:03:08;7.28;;;5.00;;
29824;SDS011;16713;52.916;12.834;2024-01-15T01:05:35;9.52;;;5.50;;
29824;SDS011;16713;52.916;12.834;2024-01-15T01:08:02;8.23;;;5.20;;
29824;SDS011;16713;52.916;12.834;2024-01-15T01:10:28;9.07;;;5.32;;
29824;SDS011;16713;52.916;12.834;2024-01-15T01:12:55;10.88;;;4.75;;
29824;SDS011;16713;52.916;12.834;2024-01-15T01:15:21;8.20;;;5.25;;
29824;SDS011;16713;52.916;12.834;2024-01-15T01:17:48;9.35;;;4.78;;
29824;SDS011;16713;52.916;12.834;2024-01-15T01:20:15;10.55;;;4.90;;
29824;SDS011;16713;52.916;12.834;2024-01-15T01:22:44;10.63;;;5.07;;
29824;SDS011;16713;52.916;12.834;2024-01-15T01:25:11;9.65;;;5.18;;
29824;SDS011;16713;52.916;12.834;2024-01-15T01:27:37;9.93;;;4.60;;
29824;SDS011;16713;52.916;12.834;2024-01-15T01:30:04;7.63;;;3.83;;
29824;SDS011;16713;52.916;12.834;2024-01-15T01:32:31;12.65;;;4.80;;
29824;SDS011;16713;52.916;12.834;2024-01-15T01:34:57;10.00;;;3.90;;
29824;SDS011;16713;52.916;12.834;2024-01-15T01:37:24;9.95;;;4.82;;
29824;SDS011;16713;52.916;12.834;2024-01-15T01:39:50;10.38;;;4.35;;
29824;SDS011;16713;52.916;12.834;2024-01-15T01:42:17;9.32;;;4.70;;
29824;SDS011;16713;52.916;12.834;2024-01-15T01:44:44;7.95;;;4.30;;
29824;SDS011;16713;52.916;12.834;2024-01-15T01:47:10;10.82;;;4.13;;
29824;SDS011;16713;52.916;12.834;2024-01-15T01:49:37;10.68;;;4.28;;
29824;SDS011;16713;52.916;12.834;2024-01-15T01:52:04;10.52;;;4.35;;
29824;SDS011;16713;52.916;12.834;2024-01-15T01:54:33;11.15;;;3.63;;
29824;SDS011;16713;52.916;12.834;2024-01-15T01:57:02;12.57;;;4.40;;
29824;SDS011;16713;52.916;12.834;2024-01-15T01:59:29;11.52;;;5.32;;
29824;SDS011;16713;52.916;12.834;2024-01-15T02:01:56;8.48;;;4.50;;
29824;SDS011;16713;52.916;12.834;2024-01-15T02:04:23;10.30;;;5.00;;
29824;SDS011;16713;52.916;12.834;2024-01-15T02:06:51;9.65;;;4.30;;
29824;SDS011;16713;52.916;12.834;2024-01-15T02:09:18;13.55;;;5.18;;
29824;SDS011;16713;52.916;12.834;2024-01-15T02:11:48;10.63;;;5.68;;
29824;SDS011;16713;52.916;12.834;2024-01-15T02:14:14;13.35;;;5.80;;
29824;SDS011;16713;52.916;12.834;2024-01-15T02:16:41;12.15;;;5.03;;
29824;SDS011;16713;52.916;12.834;2024-01-15T02:19:10;12.63;;;5.60;;
29824;SDS011;16713;52.916;12.834;2024-01-15T02:21:41;16.45;;;5.70;;
29824;SDS011;16713;52.916;12.834;2024-01-15T02:24:07;11.15;;;5.53;;
29824;SDS011;16713;52.916;12.834;2024-01-15T02:26:34;14.10;;;6.43;;
29824;SDS011;16713;52.916;12.834;2024-01-15T02:29:02;11.63;;;5.25;;
29824;SDS011;16713;52.916;12.834;2024-01-15T02:31:29;14.75;;;5.35;;
29824;SDS011;16713;52.916;12.834;2024-01-15T02:33:56;12.20;;;5.30;;
29824;SDS011;16713;52.916;12.834;2024-01-15T02:36:23;12.82;;;5.15;;
29824;SDS011;16713;52.916;12.834;2024-01-15T02:38:49;11.15;;;5.68;;
29824;SDS011;16713;52.916;12.834;2024-01-15T02:41:16;14.70;;;5.40;;
29824;SDS011;16713;52.916;12.834;2024-01-15T02:43:42;12.65;;;5.00;;
29824;SDS011;16713;52.916;12.834;2024-01-15T02:46:09;10.70;;;5.68;;
29824;SDS011;16713;52.916;12.834;2024-01-15T02:48:35;13.70;;;5.30;;
29824;SDS011;16713;52.916;12.834;2024-01-15T02:51:02;12.23;;;5.15;;
29824;SDS011;16713;52.916;12.834;2024-01-15T02:53:28;9.23;;;4.75;;
29824;SDS011;16713;52.916;12.834;2024-01-15T02:55:55;10.25;;;4.90;;
29824;SDS011;16713;52.916;12.834;2024-01-15T02:58:21;7.82;;;4.80;;
29824;SDS011;16713;52.916;12.834;2024-01-15T03:00:48;9.77;;;4.45;;
29824;SDS011;16713;52.916;12.834;2024-01-15T03:03:15;15.95;;;4.35;;
29824;SDS011;16713;52.916;12.834;2024-01-15T03:05:41;11.70;;;4.70;;
29824;SDS011;16713;52.916;12.834;2024-01-15T03:08:08;10.93;;;4.47;;
29824;SDS011;16713;52.916;12.834;2024-01-15T03:10:34;11.63;;;4.90;;
29824;SDS011;16713;52.916;12.834;2024-01-15T03:13:00;9.90;;;5.68;;
29824;SDS011;16713;52.916;12.834;2024-01-15T03:15:27;14.25;;;4.78;;
29824;SDS011;16713;52.916;12.834;2024-01-15T03:17:53;12.18;;;4.30;;
29824;SDS011;16713;52.916;12.834;2024-01-15T03:20:20;11.40;;;5.43;;
29824;SDS011;16713;52.916;12.834;2024-01-15T03:22:46;16.17;;;5.15;;
29824;SDS011;16713;52.916;12.834;2024-01-15T03:25:13;9.98;;;4.35;;
29824;SDS011;16713;52.916;12.834;2024-01-15T03:27:39;10.55;;;5.45;;
29824;SDS011;16713;52.916;12.834;2024-01-15T03:30:06;7.32;;;3.65;;
29824;SDS011;16713;52.916;12.834;2024-01-15T03:32:33;13.57;;;5.10;;
29824;SDS011;16713;52.916;12.834;2024-01-15T03:35:00;11.82;;;4.22;;
29824;SDS011;16713;52.916;12.834;2024-01-15T03:37:26;17.88;;;5.82;;
29824;SDS011;16713;52.916;12.834;2024-01-15T03:39:53;9.57;;;4.15;;
29824;SDS011;16713;52.916;12.834;2024-01-15T03:42:19;14.40;;;3.63;;
29824;SDS011;16713;52.916;12.834;2024-01-15T03:44:46;8.43;;;3.97;;
29824;SDS011;16713;52.916;12.834;2024-01-15T03:47:12;11.40;;;4.13;;
29824;SDS011;16713;52.916;12.834;2024-01-15T03:49:39;16.00;;;3.83;;
29824;SDS011;16713;52.916;12.834;2024-01-15T03:52:05;7.78;;;3.25;;
29824;SDS011;16713;52.916;12.834;2024-01-15T03:54:32;10.23;;;3.25;;
29824;SDS011;16713;52.916;12.834;2024-01-15T03:56:58;8.57;;;3.63;;
29824;SDS011;16713;52.916;12.834;2024-01-15T03:59:25;9.75;;;4.45;;
29824;SDS011;16713;52.916;12.834;2024-01-15T04:01:52;15.85;;;3.85;;
29824;SDS011;16713;52.916;12.834;2024-01-15T04:04:19;15.70;;;6.13;;
29824;SDS011;16713;52.916;12.834;2024-01-15T04:06:45;19.33;;;3.88;;
29824;SDS011;16713;52.916;12.834;2024-01-15T04:09:12;23.95;;;4.18;;
29824;SDS011;16713;52.916;12.834;2024-01-15T04:11:39;8.20;;;3.33;;
29824;SDS011;16713;52.916;12.834;2024-01-15T04:14:06;9.80;;;3.67;;
29824;SDS011;16713;52.916;12.834;2024-01-15T04:16:33;10.10;;;3.28;;
29824;SDS011;16713;52.916;12.834;2024-01-15T04:18:59;12.32;;;3.75;;
29824;SDS011;16713;52.916;12.834;2024-01-15T04:21:26;11.05;;;3.15;;
29824;SDS011;16713;52.916;12.834;2024-01-15T04:23:52;8.52;;;3.05;;
29824;SDS011;16713;52.916;12.834;2024-01-15T04:26:19;10.20;;;2.40;;
29824;SDS011;16713;52.916;12.834;2024-01-15T04:28:45;6.72;;;3.83;;
29824;SDS011;16713;52.916;12.834;2024-01-15T04:31:20;14.02;;;2.60;;
29824;SDS011;16713;52.916;12.834;2024-01-15T04:33:50;9.20;;;2.33;;
29824;SDS011;16713;52.916;12.834;2024-01-15T04:36:17;11.05;;;2.90;;
29824;SDS011;16713;52.916;12.834;2024-01-15T04:38:44;11.10;;;2.78;;
29824;SDS011;16713;52.916;12.834;2024-01-15T04:41:11;5.88;;;2.85;;
29824;SDS011;16713;52.916;12.834;2024-01-15T04:43:39;14.80;;;2.85;;
29824;SDS011;16713;52.916;12.834;2024-01-15T04:46:05;12.20;;;2.50;;
29824;SDS011;16713;52.916;12.834;2024-01-15T04:48:33;5.75;;;2.90;;
29824;SDS011;16713;52.916;12.834;2024-01-15T04:50:59;10.95;;;2.45;;
29824;SDS011;16713;52.916;12.834;2024-01-15T04:53:26;5.75;;;2.05;;
29824;SDS011;16713;52.916;12.834;2024-01-15T04:55:52;8.40;;;2.03;;
29824;SDS011;16713;52.916;12.834;2024-01-15T04:58:19;17.75;;;2.40;;
29824;SDS011;16713;52.916;12.834;2024-01-15T05:00:45;9.38;;;2.08;;
29824;SDS011;16713;52.916;12.834;2024-01-15T05:03:12;6.65;;;2.67;;
29824;SDS011;16713;52.916;12.834;2024-01-15T05:05:39;11.35;;;2.50;;
29824;SDS011;16713;52.916;12.834;2024-01-15T05:08:05;4.45;;;1.83;;
29824;SDS011;16713;52.916;12.834;2024-01-15T05:10:32;8.63;;;2.55;;
29824;SDS011;16713;52.916;12.834;2024-01-15T05:12:58;6.47;;;1.90;;
29824;SDS011;16713;52.916;12.834;2024-01-15T05:15:24;7.90;;;1.90;;
29824;SDS011;16713;52.916;12.834;2024-01-15T05:17:51;6.47;;;2.10;;
29824;SDS011;16713;52.916;12.834;2024-01-15T05:20:17;12.95;;;2.45;;
29824;SDS011;16713;52.916;12.834;2024-01-15T05:22:44;6.95;;;1.98;;
29824;SDS011;16713;52.916;12.834;2024-01-15T05:25:10;9.82;;;2.70;;
29824;SDS011;16713;52.916;12.834;2024-01-15T05:27:37;6.10;;;1.77;;
29824;SDS011;16713;52.916;12.834;2024-01-15T05:30:04;6.50;;;1.63;;
29824;SDS011;16713;52.916;12.834;2024-01-15T05:32:31;10.00;;;2.00;;
29824;SDS011;16713;52.916;12.834;2024-01-15T05:34:58;7.60;;;1.63;;
29824;SDS011;16713;52.916;12.834;2024-01-15T05:37:25;8.60;;;1.80;;
29824;SDS011;16713;52.916;12.834;2024-01-15T05:39:51;4.95;;;1.55;;
29824;SDS011;16713;52.916;12.834;2024-01-15T05:42:18;6.03;;;3.03;;
29824;SDS011;16713;52.916;12.834;2024-01-15T05:44:44;6.03;;;1.55;;
29824;SDS011;16713;52.916;12.834;2024-01-15T05:47:11;5.25;;;1.52;;
29824;SDS011;16713;52.916;12.834;2024-01-15T05:49:37;7.43;;;1.70;;
29824;SDS011;16713;52.916;12.834;2024-01-15T05:52:04;6.18;;;1.67;;
29824;SDS011;16713;52.916;12.834;2024-01-15T05:54:31;5.50;;;1.63;;
29824;SDS011;16713;52.916;12.834;2024-01-15T05:56:58;6.25;;;1.73;;
29824;SDS011;16713;52.916;12.834;2024-01-15T05:59:24;5.20;;;1.73;;
29824;SDS011;16713;52.916;12.834;2024-01-15T06:01:51;3.60;;;1.80;;
29824;SDS011;16713;52.916;12.834;2024-01-15T06:04:18;4.20;;;1.65;;
29824;SDS011;16713;52.916;12.834;2024-01-15T06:06:45;7.85;;;2.35;;
29824;SDS011;16713;52.916;12.834;2024-01-15T06:09:11;8.85;;;1.58;;
29824;SDS011;16713;52.916;12.834;2024-01-15T06:11:38;6.07;;;1.30;;
29824;SDS011;16713;52.916;12.834;2024-01-15T06:14:04;6.93;;;2.28;;
29824;SDS011;16713;52.916;12.834;2024-01-15T06:16:31;8.73;;;1.73;;
29824;SDS011;16713;52.916;12.834;2024-01-15T06:18:57;8.38;;;1.48;;
29824;SDS011;16713;52.916;12.834;2024-01-15T06:21:24;6.97;;;1.05;;
29824;SDS011;16713;52.916;12.834;2024-01-15T06:23:50;4.63;;;2.13;;
29824;SDS011;16713;52.916;12.834;2024-01-15T06:26:17;7.97;;;1.70;;
29824;SDS011;16713;52.916;12.834;2024-01-15T06:28:43;4.30;;;1.30;;
29824;SDS011;16713;52.916;12.834;2024-01-15T06:31:10;7.70;;;1.50;;
29824;SDS011;16713;52.916;12.834;2024-01-15T06:33:37;6.88;;;1.58;;
29824;SDS011;16713;52.916;12.834;2024-01-15T06:36:04;7.18;;;1.55;;
29824;SDS011;16713;52.916;12.834;2024-01-15T06:38:31;6.22;;;1.70;;
29824;SDS011;16713;52.916;12.834;2024-01-15T06:40:58;10.27;;;1.52;;
29824;SDS011;16713;52.916;12.834;2024-01-15T06:43:24;6.32;;;1.48;;
29824;SDS011;16713;52.916;12.834;2024-01-15T06:45:51;4.63;;;1.30;;
29824;SDS011;16713;52.916;12.834;2024-01-15T06:48:18;8.52;;;1.95;;
29824;SDS011;16713;52.916;12.834;2024-01-15T06:50:45;11.30;;;1.70;;
29824;SDS011;16713;52.916;12.834;2024-01-15T06:53:11;4.90;;;1.35;;
29824;SDS011;16713;52.916;12.834;2024-01-15T06:55:38;11.48;;;2.05;;
29824;SDS011;16713;52.916;12.834;2024-01-15T06:58:05;4.95;;;1.80;;
29824;SDS011;16713;52.916;12.834;2024-01-15T07:00:31;9.07;;;2.38;;
29824;SDS011;16713;52.916;12.834;2024-01-15T07:02:58;8.60;;;2.03;;
29824;SDS011;16713;52.916;12.834;2024-01-15T07:05:24;11.95;;;1.60;;
29824;SDS011;16713;52.916;12.834;2024-01-15T07:07:51;9.32;;;1.90;;
29824;SDS011;16713;52.916;12.834;2024-01-15T07:10:17;8.85;;;1.88;;
29824;SDS011;16713;52.916;12.834;2024-01-15T07:12:44;10.95;;;4.28;;
29824;SDS011;16713;52.916;12.834;2024-01-15T07:15:11;8.73;;;1.92;;
29824;SDS011;16713;52.916;12.834;2024-01-15T07:17:38;9.85;;;2.58;;
29824;SDS011;16713;52.916;12.834;2024-01-15T07:20:06;9.43;;;1.88;;
29824;SDS011;16713;52.916;12.834;2024-01-15T07:22:36;9.55;;;2.17;;
29824;SDS011;16713;52.916;12.834;2024-01-15T07:25:03;11.07;;;2.38;;
29824;SDS011;16713;52.916;12.834;2024-01-15T07:27:31;13.77;;;3.45;;
29824;SDS011;16713;52.916;12.834;2024-01-15T07:29:58;11.52;;;2.53;;
29824;SDS011;16713;52.916;12.834;2024-01-15T07:32:28;13.48;;;2.25;;
29824;SDS011;16713;52.916;12.834;2024-01-15T07:34:54;16.70;;;2.45;;
29824;SDS011;16713;52.916;12.834;2024-01-15T07:37:21;15.60;;;5.25;;
29824;SDS011;16713;52.916;12.834;2024-01-15T07:39:49;10.77;;;2.10;;
29824;SDS011;16713;52.916;12.834;2024-01-15T07:42:15;10.65;;;2.17;;
29824;SDS011;16713;52.916;12.834;2024-01-15T07:44:42;19.02;;;3.22;;
29824;SDS011;16713;52.916;12.834;2024-01-15T07:47:09;19.83;;;3.30;;
29824;SDS011;16713;52.916;12.834;2024-01-15T07:49:35;8.15;;;2.08;;
29824;SDS011;16713;52.916;12.834;2024-01-15T07:52:02;7.93;;;2.33;;
29824;SDS011;16713;52.916;12.834;2024-01-15T07:54:31;15.40;;;2.65;;
29824;SDS011;16713;52.916;12.834;2024-01-15T07:56:59;9.48;;;2.30;;
29824;SDS011;16713;52.916;12.834;2024-01-15T07:59:27;8.45;;;1.77;;
29824;SDS011;16713;52.916;12.834;2024-01-15T08:01:54;12.65;;;2.67;;
29824;SDS011;16713;52.916;12.834;2024-01-15T08:04:21;12.73;;;2.55;;
29824;SDS011;16713;52.916;12.834;2024-01-15T08:06:48;9.35;;;2.10;;
29824;SDS011;16713;52.916;12.834;2024-01-15T08:09:15;14.90;;;2.42;;
29824;SDS011;16713;52.916;12.834;2024-01-15T08:11:42;14.57;;;2.55;;
29824;SDS011;16713;52.916;12.834;2024-01-15T08:14:09;8.95;;;2.50;;
29824;SDS011;16713;52.916;12.834;2024-01-15T08:16:36;12.55;;;2.10;;
29824;SDS011;16713;52.916;12.834;2024-01-15T08:19:03;10.55;;;2.83;;
29824;SDS011;16713;52.916;12.834;2024-01-15T08:21:30;9.80;;;2.40;;
29824;SDS011;16713;52.916;12.834;2024-01-15T08:24:01;11.20;;;2.22;;
29824;SDS011;16713;52.916;12.834;2024-01-15T08:26:29;6.82;;;1.92;;
29824;SDS011;16713;52.916;12.834;2024-01-15T08:28:56;12.18;;;1.88;;
29824;SDS011;16713;52.916;12.834;2024-01-15T08:31:23;11.50;;;2.40;;
29824;SDS011;16713;52.916;12.834;2024-01-15T08:33:50;7.05;;;2.03;;
29824;SDS011;16713;52.916;12.834;2024-01-15T08:36:17;5.93;;;2.15;;
29824;SDS011;16713;52.916;12.834;2024-01-15T08:38:44;6.32;;;1.30;;
29824;SDS011;16713;52.916;12.834;2024-01-15T08:41:10;6.95;;;1.95;;
29824;SDS011;16713;52.916;12.834;2024-01-15T08:43:37;9.85;;;2.25;;
29824;SDS011;16713;52.916;12.834;2024-01-15T08:46:03;13.55;;;1.90;;
29824;SDS011;16713;52.916;12.834;2024-01-15T08:48:30;4.85;;;1.85;;
29824;SDS011;16713;52.916;12.834;2024-01-15T08:50:57;9.80;;;2.30;;
29824;SDS011;16713;52.916;12.834;2024-01-15T08:53:23;10.00;;;1.80;;
29824;SDS011;16713;52.916;12.834;2024-01-15T08:55:50;8.55;;;1.77;;
29824;SDS011;16713;52.916;12.834;2024-01-15T08:58:16;10.90;;;2.05;;
29824;SDS011;16713;52.916;12.834;2024-01-15T09:00:44;9.02;;;1.75;;
29824;SDS011;16713;52.916;12.834;2024-01-15T09:03:10;8.35;;;2.05;;
29824;SDS011;16713;52.916;12.834;2024-01-15T09:05:37;9.70;;;1.95;;
29824;SDS011;16713;52.916;12.834;2024-01-15T09:08:03;8.35;;;1.75;;
29824;SDS011;16713;52.916;12.834;2024-01-15T09:10:30;9.95;;;2.00;;
29824;SDS011;16713;52.916;12.834;2024-01-15T09:12:56;9.20;;;2.15;;
29824;SDS011;16713;52.916;12.834;2024-01-15T09:15:23;10.35;;;2.00;;
29824;SDS011;16713;52.916;12.834;2024-01-15T09:17:50;17.83;;;2.17;;
29824;SDS011;16713;52.916;12.834;2024-01-15T09:20:17;7.22;;;2.28;;
29824;SDS011;16713;52.916;12.834;2024-01-15T09:22:44;9.52;;;2.22;;
29824;SDS011;16713;52.916;12.834;2024-01-15T09:25:11;11.95;;;3.30;;
29824;SDS011;16713;52.916;12.834;2024-01-15T09:27:38;6.50;;;1.90;;
29824;SDS011;16713;52.916;12.834;2024-01-15T09:30:05;9.13;;;2.22;;
29824;SDS011;16713;52.916;12.834;2024-01-15T09:32:34;5.80;;;1.67;;
29824;SDS011;16713;52.916;12.834;2024-01-15T09:35:01;5.53;;;1.80;;
29824;SDS011;16713;52.916;12.834;2024-01-15T09:37:28;8.38;;;1.35;;
29824;SDS011;16713;52.916;12.834;2024-01-15T09:40:12;13.30;;;1.77;;
29824;SDS011;16713;52.916;12.834;2024-01-15T09:42:41;9.00;;;2.00;;
29824;SDS011;16713;52.916;12.834;2024-01-15T09:45:09;4.72;;;1.30;;
29824;SDS011;16713;52.916;12.834;2024-01-15T09:47:36;11.23;;;2.22;;
29824;SDS011;16713;52.916;12.834;2024-01-15T09:50:08;6.40;;;1.33;;
29824;SDS011;16713;52.916;12.834;2024-01-15T09:52:35;8.65;;;1.77;;
29824;SDS011;16713;52.916;12.834;2024-01-15T09:55:03;4.82;;;1.73;;
29824;SDS011;16713;52.916;12.834;2024-01-15T09:57:31;5.75;;;1.25;;
29824;SDS011;16713;52.916;12.834;2024-01-15T09:59:59;3.10;;;1.58;;
29824;SDS011;16713;52.916;12.834;2024-01-15T10:02:30;6.00;;;1.60;;
29824;SDS011;16713;52.916;12.834;2024-01-15T10:04:57;6.60;;;1.10;;
29824;SDS011;16713;52.916;12.834;2024-01-15T10:07:24;5.20;;;1.30;;
29824;SDS011;16713;52.916;12.834;2024-01-15T10:09:52;5.80;;;1.42;;
29824;SDS011;16713;52.916;12.834;2024-01-15T10:12:18;5.45;;;1.27;;
29824;SDS011;16713;52.916;12.834;2024-01-15T10:14:47;5.30;;;1.10;;
29824;SDS011;16713;52.916;12.834;2024-01-15T10:17:15;4.82;;;1.25;;
29824;SDS011;16713;52.916;12.834;2024-01-15T10:19:42;2.20;;;0.93;;
29824;SDS011;16713;52.916;12.834;2024-01-15T10:22:14;4.72;;;0.90;;
29824;SDS011;16713;52.916;12.834;2024-01-15T10:24:49;3.25;;;1.02;;
29824;SDS011;16713;52.916;12.834;2024-01-15T10:27:17;5.07;;;0.98;;
29824;SDS011;16713;52.916;12.834;2024-01-15T10:29:44;3.97;;;0.90;;
29824;SDS011;16713;52.916;12.834;2024-01-15T10:32:10;4.55;;;0.98;;
29824;SDS011;16713;52.916;12.834;2024-01-15T10:34:38;4.78;;;1.10;;
29824;SDS011;16713;52.916;12.834;2024-01-15T10:37:07;2.17;;;1.13;;
29824;SDS011;16713;52.916;12.834;2024-01-15T10:39:34;5.25;;;1.35;;
29824;SDS011;16713;52.916;12.834;2024-01-15T10:42:01;3.40;;;1.27;;
29824;SDS011;16713;52.916;12.834;2024-01-15T10:44:28;4.93;;;1.15;;
29824;SDS011;16713;52.916;12.834;2024-01-15T10:46:55;7.88;;;1.55;;
29824;SDS011;16713;52.916;12.834;2024-01-15T10:49:23;4.70;;;1.13;;
29824;SDS011;16713;52.916;12.834;2024-01-15T10:51:57;5.70;;;1.20;;
29824;SDS011;16713;52.916;12.834;2024-01-15T10:54:24;6.40;;;1.88;;
29824;SDS011;16713;52.916;12.834;2024-01-15T10:56:53;5.22;;;0.88;;
29824;SDS011;16713;52.916;12.834;2024-01-15T10:59:22;8.95;;;2.05;;
29824;SDS011;16713;52.916;12.834;2024-01-15T11:01:49;5.70;;;1.20;;
29824;SDS011;16713;52.916;12.834;2024-01-15T11:04:22;3.45;;;1.00;;
29824;SDS011;16713;52.916;12.834;2024-01-15T11:06:53;7.97;;;1.60;;
29824;SDS011;16713;52.916;12.834;2024-01-15T11:09:22;4.15;;;1.10;;
29824;SDS011;16713;52.916;12.834;2024-01-15T11:11:52;9.07;;;2.58;;
29824;SDS011;16713;52.916;12.834;2024-01-15T11:14:34;3.92;;;1.10;;
29824;SDS011;16713;52.916;12.834;2024-01-15T11:17:02;2.20;;;1.02;;
29824;SDS011;16713;52.916;12.834;2024-01-15T11:19:35;2.67;;;0.80;;
29824;SDS011;16713;52.916;12.834;2024-01-15T11:22:03;5.63;;;1.20;;
29824;SDS011;16713;52.916;12.834;2024-01-15T11:24:33;5.80;;;1.60;;
29824;SDS011;16713;52.916;12.834;2024-01-15T11:27:04;2.15;;;0.70;;
29824;SDS011;16713;52.916;12.834;2024-01-15T11:32:08;5.13;;;1.90;;
29824;SDS011;16713;52.916;12.834;2024-01-15T11:37:25;1.77;;;0.75;;
29824;SDS011;16713;52.916;12.834;2024-01-15T11:39:53;2.50;;;1.55;;
29824;SDS011;16713;52.916;12.834;2024-01-15T11:42:21;4.30;;;0.50;;
29824;SDS011;16713;52.916;12.834;2024-01-15T11:44:49;1.75;;;1.10;;
29824;SDS011;16713;52.916;12.834;2024-01-15T11:47:16;0.65;;;0.40;;
29824;SDS011;16713;52.916;12.834;2024-01-15T11:50:03;2.03;;;0.55;;
29824;SDS011;16713;52.916;12.834;2024-01-15T11:52:35;2.65;;;0.50;;
29824;SDS011;16713;52.916;12.834;2024-01-15T11:55:14;0.70;;;0.57;;
29824;SDS011;16713;52.916;12.834;2024-01-15T11:57:51;1.00;;;0.40;;
29824;SDS011;16713;52.916;12.834;2024-01-15T12:00:21;1.85;;;0.50;;
29824;SDS011;16713;52.916;12.834;2024-01-15T12:02:49;0.95;;;0.35;;
29824;SDS011;16713;52.916;12.834;2024-01-15T12:05:18;0.57;;;0.30;;
29824;SDS011;16713;52.916;12.834;2024-01-15T12:07:46;1.42;;;0.40;;
29824;SDS011;16713;52.916;12.834;2024-01-15T12:10:17;1.00;;;0.57;;
29824;SDS011;16713;52.916;12.834;2024-01-15T12:15:41;1.17;;;0.60;;
29824;SDS011;16713;52.916;12.834;2024-01-15T12:18:11;0.55;;;0.50;;
29824;SDS011;16713;52.916;12.834;2024-01-15T12:20:42;0.93;;;0.93;;
29824;SDS011;16713;52.916;12.834;2024-01-15T12:23:10;2.05;;;0.50;;
29824;SDS011;16713;52.916;12.834;2024-01-15T12:25:37;0.75;;;0.60;;
29824;SDS011;16713;52.916;12.834;2024-01-15T12:28:04;3.05;;;0.50;;
29824;SDS011;16713;52.916;12.834;2024-01-15T12:30:33;3.75;;;0.70;;
29824;SDS011;16713;52.916;12.834;2024-01-15T12:33:01;0.40;;;0.40;;
29824;SDS011;16713;52.916;12.834;2024-01-15T12:35:30;0.65;;;0.60;;
29824;SDS011;16713;52.916;12.834;2024-01-15T12:37:57;3.20;;;1.20;;
29824;SDS011;16713;52.916;12.834;2024-01-15T12:40:26;2.72;;;0.98;;
29824;SDS011;16713;52.916;12.834;2024-01-15T12:42:53;2.53;;;1.13;;
29824;SDS011;16713;52.916;12.834;2024-01-15T12:45:19;1.70;;;1.05;;
29824;SDS011;16713;52.916;12.834;2024-01-15T12:47:46;1.85;;;0.80;;
29824;SDS011;16713;52.916;12.834;2024-01-15T12:50:13;2.13;;;0.82;;
29824;SDS011;16713;52.916;12.834;2024-01-15T12:52:46;0.85;;;0.77;;
29824;SDS011;16713;52.916;12.834;2024-01-15T12:55:13;2.72;;;0.60;;
29824;SDS011;16713;52.916;12.834;2024-01-15T12:57:39;2.17;;;0.63;;
29824;SDS011;16713;52.916;12.834;2024-01-15T13:00:06;0.40;;;0.40;;
29824;SDS011;16713;52.916;12.834;2024-01-15T13:02:40;1.13;;;0.82;;
29824;SDS011;16713;52.916;12.834;2024-01-15T13:05:08;1.42;;;0.80;;
29824;SDS011;16713;52.916;12.834;2024-01-15T13:07:35;0.40;;;0.40;;
29824;SDS011;16713;52.916;12.834;2024-01-15T13:10:02;2.10;;;0.90;;
29824;SDS011;16713;52.916;12.834;2024-01-15T13:12:28;1.60;;;0.80;;
29824;SDS011;16713;52.916;12.834;2024-01-15T13:14:55;3.35;;;0.55;;
29824;SDS011;16713;52.916;12.834;2024-01-15T13:17:22;2.58;;;0.95;;
29824;SDS011;16713;52.916;12.834;2024-01-15T13:19:49;4.43;;;1.08;;
29824;SDS011;16713;52.916;12.834;2024-01-15T13:22:15;3.05;;;0.80;;
29824;SDS011;16713;52.916;12.834;2024-01-15T13:24:42;1.55;;;0.70;;
29824;SDS011;16713;52.916;12.834;2024-01-15T13:27:09;3.72;;;1.23;;
29824;SDS011;16713;52.916;12.834;2024-01-15T13:29:36;1.85;;;0.70;;
29824;SDS011;16713;52.916;12.834;2024-01-15T13:32:03;1.38;;;0.90;;
29824;SDS011;16713;52.916;12.834;2024-01-15T13:34:31;3.08;;;0.50;;
29824;SDS011;16713;52.916;12.834;2024-01-15T13:36:57;2.85;;;0.75;;
29824;SDS011;16713;52.916;12.834;2024-01-15T13:39:24;2.90;;;0.60;;
29824;SDS011;16713;52.916;12.834;2024-01-15T13:41:50;2.78;;;0.95;;
29824;SDS011;16713;52.916;12.834;2024-01-15T13:44:17;0.82;;;0.60;;
29824;SDS011;16713;52.916;12.834;2024-01-15T13:46:44;3.53;;;0.80;;
29824;SDS011;16713;52.916;12.834;2024-01-15T13:49:10;4.18;;;0.70;;
29824;SDS011;16713;52.916;12.834;2024-01-15T13:51:37;1.75;;;0.77;;
29824;SDS011;16713;52.916;12.834;2024-01-15T13:54:04;3.10;;;1.00;;
29824;SDS011;16713;52.916;12.834;2024-01-15T13:56:30;1.27;;;0.85;;
29824;SDS011;16713;52.916;12.834;2024-01-15T13:59:01;1.50;;;1.00;;
29824;SDS011;16713;52.916;12.834;2024-01-15T14:01:28;2.90;;;0.80;;
29824;SDS011;16713;52.916;12.834;2024-01-15T14:03:55;6.15;;;1.10;;
29824;SDS011;16713;52.916;12.834;2024-01-15T14:06:21;4.43;;;0.82;;
29824;SDS011;16713;52.916;12.834;2024-01-15T14:08:48;0.75;;;0.70;;
29824;SDS011;16713;52.916;12.834;2024-01-15T14:11:14;0.98;;;0.68;;
29824;SDS011;16713;52.916;12.834;2024-01-15T14:13:41;0.60;;;0.60;;
29824;SDS011;16713;52.916;12.834;2024-01-15T14:16:08;1.45;;;0.80;;
29824;SDS011;16713;52.916;12.834;2024-01-15T14:18:38;1.60;;;0.90;;
29824;SDS011;16713;52.916;12.834;2024-01-15T14:21:04;1.95;;;1.15;;
29824;SDS011;16713;52.916;12.834;2024-01-15T14:23:31;0.93;;;0.70;;
29824;SDS011;16713;52.916;12.834;2024-01-15T14:25:57;2.92;;;1.10;;
29824;SDS011;16713;52.916;12.834;2024-01-15T14:28:24;2.45;;;1.10;;
29824;SDS011;16713;52.916;12.834;2024-01-15T14:30:50;2.55;;;1.13;;
29824;SDS011;16713;52.916;12.834;2024-01-15T14:33:17;1.35;;;1.10;;
29824;SDS011;16713;52.916;12.834;2024-01-15T14:35:44;4.57;;;1.25;;
29824;SDS011;16713;52.916;12.834;2024-01-15T14:38:10;2.45;;;0.85;;
29824;SDS011;16713;52.916;12.834;2024-01-15T14:40:37;3.30;;;1.20;;